Ancora, New Jersey
Current Conditions -  °F | °C
As of 12:01 AM on Thursday 23 Oct 2014 (Local Time) from KACY Reporting Station
Light Rain Light Rain  
Wind Chill: 11°   Ceiling: 1600
Heat Index: 11°   Visibility: 9mi
Dew Point: 10°   Wind: 20mph
Humidity: 96%   Direction: 330°NNW
Pressure: 29.72"   Gusts: NA
Location:  39.637°N, 74.7602°W
Report Text: KACY 230401Z 33017KT 9SM -RA SCT010 BKN016 OVC026 11/10 A2972 RMK AO2 P0001 T01060100
Loading
Personal Weather Stations






























Interactive Weather Map
Tropical Storm Tracking
New forecast layout! Learn more

10-Day Weather Forecast

Advertisements
Track Severe Weather on mobile